INFORMACIÓN METAR y TAF
METAR FOR LERS
ADDS - METARS form results

(1145 UTC 17 April 2021)
Data provider http://aviationweather.gov/metar/data/
 
METAR text: LERS 171130Z VRB07G19KT 9999 FEW040 SCT050 15/01 Q1016
Conditions at: LERS (REUS (CIV/MIL) , ES) observed 1130 UTC 17 April 2021
Temperature: 15.0°C (59°F)
Dewpoint: 1.0°C (34°F) [RH = 39%]
Pressure (altimeter): 30.00 inches Hg (1016.0 mb)
Winds: variable direction winds at 8 MPH (7 knots; 3.6 m/s)
gusting to 22 MPH (19 knots; 9.8 m/s)
Visibility: 6 or more miles (10+ km)
Ceiling: at least 12,000 feet AGL
Clouds: few clouds at 4000 feet AGL
scattered clouds at 5000 feet AGL
Weather: no significant weather observed at this time

METAR text: LERS 171100Z 27011KT 240V300 9999 FEW040 SCT050 14/01 Q1016
Conditions at: LERS (REUS (CIV/MIL) , ES) observed 1100 UTC 17 April 2021
Temperature: 14.0°C (57°F)
Dewpoint: 1.0°C (34°F) [RH = 41%]
Pressure (altimeter): 30.00 inches Hg (1016.0 mb)
Winds: from the W (270 degrees) at 13 MPH (11 knots; 5.7 m/s)
Visibility: 6 or more miles (10+ km)
Ceiling: at least 12,000 feet AGL
Clouds: few clouds at 4000 feet AGL
scattered clouds at 5000 feet AGL
Weather: no significant weather observed at this time

Forecast for: LERS (REUS (CIV/MIL) , ES)
Text: TAF LERS 170800Z 1709/1809 31008KT 9999 FEW050 TX17/1712Z TN06/1806Z
Forecast period: 0900 to 1300 UTC 17 April 2021
Forecast type: FROM: standard forecast or significant change
Winds: from the NW (310 degrees) at 9 MPH (8 knots; 4.1 m/s)
Visibility: 6 or more miles (10+ km)
Ceiling: at least 12,000 feet AGL
Clouds: few clouds at 5000 feet AGL
Weather: no significant weather forecast for this period
Text: BECMG 1713/1715 15010KT
Forecast period: 1300 to 1800 UTC 17 April 2021
Forecast type: BECOMING: Conditions expected to become as follows by 1500 UTC 17 April 2021
Winds: from the SSE (150 degrees) at 12 MPH (10 knots; 5.1 m/s)
Visibility: 6 or more miles (10+ km)
Ceiling: at least 12,000 feet AGL
Clouds: few clouds at 5000 feet AGL
Weather: no significant weather forecast for this period
Text: BECMG 1718/1721 VRB05KT
Forecast period: 1800 UTC 17 April 2021 to 0900 UTC 18 April 2021
Forecast type: BECOMING: Conditions expected to become as follows by 2100 UTC 17 April 2021
Winds: variable direction winds at 6 MPH (5 knots; 2.6 m/s)
Visibility: 6 or more miles (10+ km)
Ceiling: at least 12,000 feet AGL
Clouds: few clouds at 5000 feet AGL
Weather: no significant weather forecast for this period

 MAPA DE AEROPUERTO

 INFORMACIÓN DE PISTA

 FRECUANCIAS DEL AEROPUERTO
Tipo APP Nombre APP Frecuencia 118.15 MHZ
Tipo GND Nombre GND Frecuencia 121.7 MHZ
Tipo TWR Nombre TWR Frecuencia 118.15 MHZ

 RADIO AYUDAS DEL AEROPUERTO
Tipo VOR-DME Nombre Reus Frecuencia 114200 KHZ
Tipo NDB Nombre Reus Frecuencia 424 KHZ